createdAt,value
2022-09-25T00:02:11.390Z,98484.88
2022-09-25T00:04:56.497Z,98488.88
2022-09-25T00:07:42.145Z,98484.09
2022-09-25T00:10:29.099Z,98481.34
2022-09-25T00:13:17.037Z,98484.88
2022-09-25T00:16:03.325Z,98485.66
2022-09-25T00:19:07.542Z,98482.13
2022-09-25T00:21:53.657Z,98482.13
2022-09-25T00:24:38.879Z,98482.13
2022-09-25T00:27:24.166Z,98482.13
2022-09-25T00:30:10.852Z,98482.13
2022-09-25T00:32:56.503Z,98473.81
2022-09-25T00:35:41.686Z,98476.56
2022-09-25T00:38:27.039Z,98477.34
2022-09-25T00:41:12.826Z,98486.47
2022-09-25T00:43:59.430Z,98471.03
2022-09-25T00:46:44.899Z,98469.03
2022-09-25T00:49:30.010Z,98470.63
2022-09-25T00:52:15.726Z,98474.59
2022-09-25T00:55:07.211Z,98465.09
2022-09-25T00:57:56.514Z,98464.72
2022-09-25T01:00:42.535Z,98463.97
2022-09-25T01:03:28.382Z,98459.56
2022-09-25T01:06:16.892Z,98458.78
2022-09-25T01:09:02.901Z,98462.75
2022-09-25T01:11:48.422Z,98456.44
2022-09-25T01:14:34.856Z,98456.44
2022-09-25T01:17:35.607Z,98452.44
2022-09-25T01:20:40.676Z,98453.25
2022-09-25T01:23:50.929Z,98452.44
2022-09-25T01:26:57.641Z,98456.78
2022-09-25T01:30:09.536Z,98450.88
2022-09-25T01:33:18.249Z,98457.97
2022-09-25T01:36:14.049Z,98463.16
2022-09-25T01:39:19.120Z,98453.66
2022-09-25T01:42:17.140Z,98455.66
2022-09-25T01:45:09.600Z,98450.13
2022-09-25T01:47:58.780Z,98451.31
2022-09-25T01:50:53.232Z,98458.41
2022-09-25T01:53:47.795Z,98459.19
2022-09-25T01:56:42.942Z,98463.50
2022-09-25T01:59:44.320Z,98461.19
2022-09-25T02:02:35.252Z,98459.97
2022-09-25T02:05:46.340Z,98461.19
2022-09-25T02:08:57.971Z,98461.97
2022-09-25T02:11:48.778Z,98457.19
2022-09-25T02:14:46.599Z,98463.50
2022-09-25T02:18:07.418Z,98456.44
2022-09-25T02:21:12.391Z,98453.66
2022-09-25T02:24:09.883Z,98461.19
2022-09-25T02:26:56.460Z,98456.00
2022-09-25T02:29:42.793Z,98452.44
2022-09-25T02:32:32.885Z,98457.19
2022-09-25T02:35:18.620Z,98455.66
2022-09-25T02:38:04.744Z,98447.69
2022-09-25T02:41:01.173Z,98456.00
2022-09-25T02:44:08.299Z,98457.56
2022-09-25T02:47:08.620Z,98457.97
2022-09-25T02:50:12.561Z,98458.78
2022-09-25T02:53:21.921Z,98455.22
2022-09-25T02:56:30.404Z,98451.66
2022-09-25T02:59:26.041Z,98454.44
2022-09-25T03:02:12.913Z,98452.44
2022-09-25T03:04:59.623Z,98450.47
2022-09-25T03:08:03.377Z,98450.47
2022-09-25T03:10:49.244Z,98454.00
2022-09-25T03:13:34.809Z,98457.19
2022-09-25T03:16:46.620Z,98453.25
2022-09-25T03:19:32.911Z,98448.91
2022-09-25T03:22:18.962Z,98447.69
2022-09-25T03:25:08.306Z,98437.81
2022-09-25T03:27:53.897Z,98439.41
2022-09-25T03:30:40.974Z,98440.19
2022-09-25T03:33:28.606Z,98438.59
2022-09-25T03:36:20.612Z,98438.59
2022-09-25T03:39:06.817Z,98431.09
2022-09-25T03:41:52.262Z,98436.63
2022-09-25T03:44:37.607Z,98435.81
2022-09-25T03:47:22.778Z,98435.41
2022-09-25T03:50:08.668Z,98437.41
2022-09-25T03:52:54.115Z,98434.63
2022-09-25T03:55:39.392Z,98427.09
2022-09-25T03:58:24.916Z,98439.41
2022-09-25T04:01:11.272Z,98438.19
2022-09-25T04:03:56.999Z,98438.19
2022-09-25T04:06:42.439Z,98435.41
2022-09-25T04:09:27.633Z,98435.41
2022-09-25T04:12:13.016Z,98438.19
2022-09-25T04:14:58.331Z,98438.94
2022-09-25T04:17:43.535Z,98446.84
2022-09-25T04:20:28.912Z,98442.50
2022-09-25T04:23:14.581Z,98457.13
2022-09-25T04:26:00.292Z,98450.78
2022-09-25T04:28:46.185Z,98451.59
2022-09-25T04:31:32.703Z,98442.84
2022-09-25T04:34:17.954Z,98438.53
2022-09-25T04:37:03.735Z,98443.66
2022-09-25T04:39:49.133Z,98447.19
2022-09-25T04:42:34.233Z,98449.97
2022-09-25T04:45:19.601Z,98454.72
2022-09-25T04:48:05.702Z,98452.72
2022-09-25T04:50:51.725Z,98449.97
2022-09-25T04:53:37.400Z,98450.75
2022-09-25T04:56:23.253Z,98461.38
2022-09-25T04:59:08.692Z,98462.94
2022-09-25T05:01:54.210Z,98452.72
2022-09-25T05:04:39.874Z,98456.63
2022-09-25T05:07:25.383Z,98457.41
2022-09-25T05:10:10.541Z,98462.59
2022-09-25T05:12:58.908Z,98460.16
2022-09-25T05:15:44.821Z,98454.63
2022-09-25T05:18:29.919Z,98457.41
2022-09-25T05:21:15.360Z,98454.13
2022-09-25T05:24:01.778Z,98448.94
2022-09-25T05:26:48.280Z,98453.63
2022-09-25T05:29:34.556Z,98458.31
2022-09-25T05:32:20.122Z,98456.25
2022-09-25T05:35:06.148Z,98458.59
2022-09-25T05:37:43.319Z,98454.53
2022-09-25T05:40:28.869Z,98461.19
2022-09-25T05:43:14.120Z,98463.56
2022-09-25T05:46:00.188Z,98466.22
2022-09-25T05:48:45.732Z,98464.59
2022-09-25T05:51:31.547Z,98470.47
2022-09-25T05:54:16.932Z,98464.50
2022-09-25T05:57:02.032Z,98466.88
2022-09-25T05:59:47.763Z,98468.75
2022-09-25T06:02:32.968Z,98460.09
2022-09-25T06:05:18.131Z,98460.09
2022-09-25T06:08:03.527Z,98457.75
2022-09-25T06:10:55.022Z,98461.31
2022-09-25T06:13:42.732Z,98460.88
2022-09-25T06:16:28.501Z,98462.44
2022-09-25T06:19:15.510Z,98453.00
2022-09-25T06:22:00.657Z,98454.56
2022-09-25T06:24:46.026Z,98455.44
2022-09-25T06:27:31.391Z,98453.44
2022-09-25T06:30:16.867Z,98456.97
2022-09-25T06:33:03.069Z,98453.00
2022-09-25T06:35:49.502Z,98454.56
2022-09-25T06:38:35.171Z,98450.56
2022-09-25T06:41:20.552Z,98455.69
2022-09-25T06:44:09.226Z,98446.59
2022-09-25T06:46:54.536Z,98456.81
2022-09-25T06:49:39.776Z,98456.38
2022-09-25T06:52:25.197Z,98457.94
2022-09-25T06:55:11.188Z,98461.50
2022-09-25T06:57:56.555Z,98465.81
2022-09-25T07:00:41.975Z,98461.50
2022-09-25T07:03:45.988Z,98469.38
2022-09-25T07:06:33.508Z,98474.13
2022-09-25T07:09:18.869Z,98473.25
2022-09-25T07:12:06.071Z,98475.25
2022-09-25T07:14:51.609Z,98461.41
2022-09-25T07:17:37.377Z,98467.41
2022-09-25T07:20:22.890Z,98463.06
2022-09-25T07:23:08.117Z,98463.41
2022-09-25T07:25:53.315Z,98467.41
2022-09-25T07:28:40.726Z,98468.59
2022-09-25T07:31:28.765Z,98457.94
2022-09-25T07:34:14.315Z,98455.63
2022-09-25T07:36:59.467Z,98447.72
2022-09-25T07:39:44.843Z,98456.47
2022-09-25T07:42:30.415Z,98457.50
2022-09-25T07:45:16.114Z,98455.09
2022-09-25T07:48:03.788Z,98457.69
2022-09-25T07:50:50.211Z,98454.91
2022-09-25T07:53:35.946Z,98454.91
2022-09-25T07:56:21.664Z,98458.06
2022-09-25T07:59:06.983Z,98454.78
2022-09-25T08:01:54.089Z,98452.00
2022-09-25T08:04:39.928Z,98453.16
2022-09-25T08:07:25.122Z,98455.47
2022-09-25T08:10:10.589Z,98448.03
2022-09-25T08:12:56.318Z,98450.69
2022-09-25T08:15:41.795Z,98437.53
2022-09-25T08:18:26.964Z,98447.84
2022-09-25T08:21:14.358Z,98438.66
2022-09-25T08:24:01.175Z,98440.66
2022-09-25T08:26:46.738Z,98441.44
2022-09-25T08:29:32.479Z,98440.47
2022-09-25T08:32:17.857Z,98432.84
2022-09-25T08:35:04.253Z,98434.31
2022-09-25T08:37:50.294Z,98427.59
2022-09-25T08:40:46.456Z,98429.47
2022-09-25T08:43:35.286Z,98425.06
2022-09-25T08:46:43.619Z,98416.31
2022-09-25T08:49:43.514Z,98417.97
2022-09-25T08:52:31.153Z,98416.66
2022-09-25T08:55:24.511Z,98414.13
2022-09-25T08:58:24.662Z,98418.03
2022-09-25T09:01:23.470Z,98418.19
2022-09-25T09:04:19.273Z,98417.41
2022-09-25T09:07:39.229Z,98418.19
2022-09-25T09:10:42.982Z,98415.44
2022-09-25T09:13:46.575Z,98420.81
2022-09-25T09:16:50.518Z,98418.25
2022-09-25T09:19:38.248Z,98413.25
2022-09-25T09:22:35.398Z,98420.00
2022-09-25T09:25:43.048Z,98413.25
2022-09-25T09:28:38.506Z,98412.38
2022-09-25T09:31:26.933Z,98402.06
2022-09-25T09:34:46.506Z,98401.19
2022-09-25T09:38:01.194Z,98401.53
2022-09-25T09:41:23.215Z,98404.97
2022-09-25T09:44:27.107Z,98398.13
2022-09-25T09:47:30.944Z,98392.91
2022-09-25T09:50:42.585Z,98390.94
2022-09-25T09:53:48.294Z,98392.47
2022-09-25T09:56:35.911Z,98396.38
2022-09-25T09:59:48.818Z,98393.16
2022-09-25T10:02:43.144Z,98386.72
2022-09-25T10:05:33.843Z,98384.28
2022-09-25T10:08:19.286Z,98378.31
2022-09-25T10:11:18.805Z,98377.41
2022-09-25T10:14:05.113Z,98382.91
2022-09-25T10:16:52.251Z,98386.03
2022-09-25T10:20:03.686Z,98379.69
2022-09-25T10:22:53.529Z,98376.13
2022-09-25T10:25:40.847Z,98364.25
2022-09-25T10:28:37.245Z,98363.81
2022-09-25T10:31:24.667Z,98366.16
2022-09-25T10:34:13.662Z,98355.38
2022-09-25T10:37:21.191Z,98352.50
2022-09-25T10:40:22.815Z,98351.63
2022-09-25T10:46:15.225Z,98352.53
2022-09-25T10:49:47.142Z,98349.63
2022-09-25T10:52:53.049Z,98353.88
2022-09-25T10:55:46.327Z,98344.97
2022-09-25T10:58:37.067Z,98345.41
2022-09-25T11:01:35.443Z,98343.44
2022-09-25T11:04:28.310Z,98347.66
2022-09-25T11:07:27.440Z,98350.31
2022-09-25T11:10:28.066Z,98353.22
2022-09-25T11:13:38.192Z,98346.78
2022-09-25T11:16:45.860Z,98341.56
2022-09-25T11:19:37.545Z,98332.44
2022-09-25T11:22:34.757Z,98331.56
2022-09-25T11:25:35.689Z,98331.56
2022-09-25T11:28:45.457Z,98332.69
2022-09-25T11:31:30.500Z,98327.47
2022-09-25T11:34:53.654Z,98326.56
2022-09-25T11:38:17.407Z,98324.88
2022-09-25T11:41:12.366Z,98316.13
2022-09-25T11:44:09.750Z,98323.22
2022-09-25T11:47:15.918Z,98327.13
2022-09-25T11:50:02.366Z,98332.22
2022-09-25T11:52:51.210Z,98327.91
2022-09-25T11:55:51.773Z,98321.56
2022-09-25T11:58:55.926Z,98328.34
2022-09-25T12:01:46.981Z,98330.66
2022-09-25T12:04:45.845Z,98324.34
2022-09-25T12:08:01.045Z,98322.78
2022-09-25T12:11:16.496Z,98315.69
2022-09-25T12:14:14.095Z,98316.44
2022-09-25T12:17:20.299Z,98316.88
2022-09-25T12:20:40.242Z,98305.34
2022-09-25T12:23:59.157Z,98301.00
2022-09-25T12:26:57.056Z,98309.88
2022-09-25T12:30:23.692Z,98293.66
2022-09-25T12:33:14.447Z,98298.00
2022-09-25T12:36:33.113Z,98303.22
2022-09-25T12:39:46.906Z,98305.66
2022-09-25T12:42:53.838Z,98302.56
2022-09-25T12:45:51.320Z,98294.78
2022-09-25T12:49:06.379Z,98291.13
2022-09-25T12:51:58.345Z,98286.75
2022-09-25T12:54:51.248Z,98283.69
2022-09-25T12:57:49.300Z,98279.66
2022-09-25T13:00:39.564Z,98281.34
2022-09-25T13:03:49.140Z,98278.78
2022-09-25T13:06:50.547Z,98278.78
2022-09-25T13:09:48.111Z,98276.78
2022-09-25T13:12:37.719Z,98284.47
2022-09-25T13:15:28.826Z,98280.34
2022-09-25T13:18:21.438Z,98280.09
2022-09-25T13:21:26.557Z,98273.22
2022-09-25T13:24:15.764Z,98270.44
2022-09-25T13:27:06.516Z,98266.13
2022-09-25T13:30:00.892Z,98271.78
2022-09-25T13:32:52.921Z,98263.25
2022-09-25T13:35:38.406Z,98258.56
2022-09-25T13:38:42.435Z,98255.47
2022-09-25T13:41:29.946Z,98249.13
2022-09-25T13:44:43.547Z,98251.47
2022-09-25T13:47:32.360Z,98253.91
2022-09-25T13:50:23.962Z,98254.25
2022-09-25T13:53:18.112Z,98256.59
2022-09-25T13:56:03.452Z,98251.56
2022-09-25T13:59:20.712Z,98259.47
2022-09-25T14:02:40.827Z,98258.47
2022-09-25T14:05:35.362Z,98251.38
2022-09-25T14:08:21.579Z,98249.94
2022-09-25T14:11:10.627Z,98251.03
2022-09-25T14:13:56.801Z,98248.69
2022-09-25T14:16:48.196Z,98249.50
2022-09-25T14:19:39.414Z,98238.38
2022-09-25T14:22:32.981Z,98236.81
2022-09-25T14:25:33.954Z,98235.91
2022-09-25T14:28:45.120Z,98237.47
2022-09-25T14:31:36.671Z,98241.03
2022-09-25T14:34:46.719Z,98233.03
2022-09-25T14:38:12.353Z,98234.91
2022-09-25T14:41:05.386Z,98227.81
2022-09-25T14:43:54.580Z,98216.72
2022-09-25T14:46:40.814Z,98215.47
2022-09-25T14:49:33.468Z,98214.69
2022-09-25T14:52:28.262Z,98214.38
2022-09-25T14:55:20.498Z,98216.81
2022-09-25T14:58:15.892Z,98217.72
2022-09-25T15:01:29.604Z,98210.63
2022-09-25T15:04:25.234Z,98210.63
2022-09-25T15:07:20.818Z,98212.50
2022-09-25T15:10:24.741Z,98212.06
2022-09-25T15:13:10.178Z,98215.59
2022-09-25T15:16:16.771Z,98217.47
2022-09-25T15:19:09.446Z,98224.59
2022-09-25T15:21:55.422Z,98216.59
2022-09-25T15:24:55.138Z,98226.13
2022-09-25T15:27:44.410Z,98224.94
2022-09-25T15:30:30.488Z,98222.16
2022-09-25T15:33:25.712Z,98211.91
2022-09-25T15:36:24.305Z,98202.38
2022-09-25T15:39:16.669Z,98209.91
2022-09-25T15:42:05.837Z,98212.69
2022-09-25T15:44:51.431Z,98221.03
2022-09-25T15:47:36.816Z,98212.69
2022-09-25T15:50:26.472Z,98214.25
2022-09-25T15:53:36.673Z,98214.69
2022-09-25T15:56:30.808Z,98222.25
2022-09-25T15:59:24.022Z,98228.59
2022-09-25T16:02:39.015Z,98213.50
2022-09-25T16:05:32.925Z,98221.25
2022-09-25T16:08:24.298Z,98226.69
2022-09-25T16:11:17.545Z,98222.03
2022-09-25T16:14:32.237Z,98223.69
2022-09-25T16:17:33.839Z,98219.16
2022-09-25T16:20:25.019Z,98227.03
2022-09-25T16:23:30.050Z,98223.94
2022-09-25T16:26:22.671Z,98227.03
2022-09-25T16:29:26.499Z,98229.91
2022-09-25T16:32:19.894Z,98223.25
2022-09-25T16:35:06.543Z,98218.94
2022-09-25T16:37:54.081Z,98224.16
2022-09-25T16:40:39.347Z,98225.38
2022-09-25T16:43:26.828Z,98225.38
2022-09-25T16:46:15.717Z,98217.94
2022-09-25T16:49:02.254Z,98223.50
2022-09-25T16:51:49.595Z,98224.38
2022-09-25T16:54:37.731Z,98222.94
2022-09-25T16:57:28.127Z,98229.28
2022-09-25T17:00:19.134Z,98232.50
2022-09-25T17:03:04.474Z,98230.50
2022-09-25T17:05:50.177Z,98230.16
2022-09-25T17:08:35.667Z,98224.16
2022-09-25T17:11:22.577Z,98222.94
2022-09-25T17:14:17.427Z,98214.28
2022-09-25T17:17:02.802Z,98219.94
2022-09-25T17:19:50.240Z,98210.38
2022-09-25T17:22:35.814Z,98217.63
2022-09-25T17:25:24.029Z,98216.84
2022-09-25T17:28:10.920Z,98225.50
2022-09-25T17:30:56.638Z,98220.16
2022-09-25T17:33:42.405Z,98218.19
2022-09-25T17:36:27.849Z,98220.06
2022-09-25T17:39:13.572Z,98215.75
2022-09-25T17:41:59.586Z,98217.28
2022-09-25T17:44:47.459Z,98218.81
2022-09-25T17:47:32.870Z,98215.59
2022-09-25T17:50:18.349Z,98220.50
2022-09-25T17:53:07.699Z,98221.72
2022-09-25T17:55:54.104Z,98219.63
2022-09-25T17:58:39.591Z,98224.38
2022-09-25T18:01:27.337Z,98210.97
2022-09-25T18:04:20.715Z,98217.28
2022-09-25T18:07:06.664Z,98217.28
2022-09-25T18:09:51.923Z,98221.59
2022-09-25T18:12:37.834Z,98219.72
2022-09-25T18:15:24.138Z,98220.50
2022-09-25T18:18:09.773Z,98225.28
2022-09-25T18:21:14.282Z,98221.41
2022-09-25T18:24:01.142Z,98217.84
2022-09-25T18:26:47.299Z,98223.41
2022-09-25T18:29:32.911Z,98218.72
2022-09-25T18:32:18.840Z,98215.50
2022-09-25T18:35:06.209Z,98228.63
2022-09-25T18:37:52.101Z,98228.28
2022-09-25T18:40:38.467Z,98234.16
2022-09-25T18:43:24.737Z,98223.16
2022-09-25T18:46:10.950Z,98223.59
2022-09-25T18:48:59.671Z,98232.38
2022-09-25T18:51:46.023Z,98229.63
2022-09-25T18:54:31.448Z,98228.84
2022-09-25T18:57:17.848Z,98228.84
2022-09-25T19:00:04.208Z,98228.84
2022-09-25T19:02:49.737Z,98224.16
2022-09-25T19:05:35.556Z,98227.28
2022-09-25T19:08:20.860Z,98219.84
2022-09-25T19:11:14.632Z,98222.97
2022-09-25T19:14:04.976Z,98227.84
2022-09-25T19:16:53.232Z,98225.16
2022-09-25T19:19:40.309Z,98222.47
2022-09-25T19:22:25.464Z,98219.81
2022-09-25T19:25:11.224Z,98217.59
2022-09-25T19:27:56.787Z,98228.78
2022-09-25T19:30:41.917Z,98226.13
2022-09-25T19:33:34.633Z,98230.53
2022-09-25T19:36:24.236Z,98233.78
2022-09-25T19:39:10.033Z,98231.53
2022-09-25T19:41:55.960Z,98224.09
2022-09-25T19:44:41.847Z,98234.53
2022-09-25T19:47:28.604Z,98230.63
2022-09-25T19:50:14.952Z,98218.44
2022-09-25T19:53:01.380Z,98222.09
2022-09-25T19:55:54.257Z,98214.56
2022-09-25T19:58:40.148Z,98216.66
2022-09-25T20:01:27.865Z,98212.41
2022-09-25T20:04:18.383Z,98217.19
2022-09-25T20:07:04.604Z,98208.88
2022-09-25T20:09:49.945Z,98221.28
2022-09-25T20:12:35.255Z,98217.38
2022-09-25T20:15:20.365Z,98217.50
2022-09-25T20:18:06.068Z,98218.25
2022-09-25T20:20:51.660Z,98219.16
2022-09-25T20:23:36.960Z,98213.69
2022-09-25T20:26:26.056Z,98217.78
2022-09-25T20:29:14.340Z,98210.50
2022-09-25T20:32:00.059Z,98208.94
2022-09-25T20:34:45.283Z,98212.94
2022-09-25T20:37:30.470Z,98211.34
2022-09-25T20:40:15.901Z,98211.34
2022-09-25T20:43:01.346Z,98216.91
2022-09-25T20:46:04.051Z,98212.25
2022-09-25T20:48:51.888Z,98211.34
2022-09-25T20:51:37.627Z,98212.69
2022-09-25T20:54:25.253Z,98220.22
2022-09-25T20:57:11.322Z,98212.78
2022-09-25T20:59:57.044Z,98210.03
2022-09-25T21:02:42.621Z,98208.03
2022-09-25T21:05:27.715Z,98205.69
2022-09-25T21:08:13.043Z,98206.13
2022-09-25T21:11:01.792Z,98202.56
2022-09-25T21:13:52.099Z,98207.78
2022-09-25T21:16:37.849Z,98210.22
2022-09-25T21:19:23.588Z,98206.28
2022-09-25T21:22:09.201Z,98197.97
2022-09-25T21:24:54.892Z,98198.41
2022-09-25T21:27:40.388Z,98199.63
2022-09-25T21:30:25.847Z,98189.00
2022-09-25T21:33:10.872Z,98198.84
2022-09-25T21:35:56.160Z,98199.28
2022-09-25T21:38:42.292Z,98196.63
2022-09-25T21:41:28.983Z,98191.09
2022-09-25T21:44:16.196Z,98185.53
2022-09-25T21:47:01.998Z,98178.44
2022-09-25T21:49:47.126Z,98184.78
2022-09-25T21:52:32.325Z,98180.44
2022-09-25T21:55:17.493Z,98180.09
2022-09-25T21:58:02.650Z,98178.09
2022-09-25T22:00:47.887Z,98176.19
2022-09-25T22:03:38.798Z,98184.09
2022-09-25T22:06:33.767Z,98178.19
2022-09-25T22:09:22.234Z,98170.31
2022-09-25T22:12:07.644Z,98169.53
2022-09-25T22:14:53.020Z,98179.84
2022-09-25T22:17:38.419Z,98179.06
2022-09-25T22:20:24.066Z,98171.97
2022-09-25T22:23:09.183Z,98171.97
2022-09-25T22:25:54.551Z,98173.28
2022-09-25T22:28:40.109Z,98161.78
2022-09-25T22:31:28.449Z,98164.97
2022-09-25T22:34:18.930Z,98160.63
2022-09-25T22:37:04.210Z,98156.75
2022-09-25T22:39:49.307Z,98156.75
2022-09-25T22:42:34.618Z,98158.41
2022-09-25T22:45:19.731Z,98159.53
2022-09-25T22:48:05.043Z,98154.31
2022-09-25T22:50:58.661Z,98153.97
2022-09-25T22:53:44.844Z,98160.41
2022-09-25T22:56:34.592Z,98154.88
2022-09-25T22:59:20.118Z,98154.88
2022-09-25T23:02:05.542Z,98159.63
2022-09-25T23:04:53.180Z,98144.66
2022-09-25T23:07:38.635Z,98149.31
2022-09-25T23:10:23.857Z,98152.53
2022-09-25T23:13:09.312Z,98141.44
2022-09-25T23:15:54.216Z,98147.44
2022-09-25T23:18:39.319Z,98148.97
2022-09-25T23:21:25.582Z,98145.44
2022-09-25T23:24:13.574Z,98138.34
2022-09-25T23:26:59.074Z,98146.97
2022-09-25T23:29:44.410Z,98147.44
2022-09-25T23:32:30.007Z,98145.44
2022-09-25T23:35:15.176Z,98143.09
2022-09-25T23:38:01.413Z,98139.13
2022-09-25T23:40:46.667Z,98139.22
2022-09-25T23:43:31.979Z,98140.44
2022-09-25T23:46:19.287Z,98136.88
2022-09-25T23:49:05.445Z,98134.09
2022-09-25T23:51:50.953Z,98128.56
2022-09-25T23:54:36.844Z,98121.50
2022-09-25T23:57:22.351Z,98119.50
